Time;durP1;ratioP1;P1;durP2;ratioP2;P2;SDS_P1;SDS_P2;PMS_P1;PMS_P2;Temp;Humidity;BMP_temperature;BMP_pressure;BME280_temperature;BME280_humidity;BME280_pressure;Samples;Min_cycle;Max_cycle;Signal;HPM_P1;HPM_P2
2021/03/27 00:00:34;;;;;;;8.98;3.05;;;11.30;99.90;;;;;;5023788;28;20043;-66
2021/03/27 00:03:22;;;;;;;7.65;2.85;;;11.20;99.90;;;;;;5020725;28;20513;-65
2021/03/27 00:06:00;;;;;;;5.95;3.60;;;11.30;99.90;;;;;;5028662;28;20065;-66
2021/03/27 00:08:48;;;;;;;7.03;3.05;;;11.10;99.90;;;;;;5029625;28;20410;-66
2021/03/27 00:11:32;;;;;;;9.68;2.97;;;11.20;99.90;;;;;;5027560;28;20022;-66
2021/03/27 00:14:09;;;;;;;7.93;2.95;;;11.10;99.90;;;;;;5016228;28;20084;-66
2021/03/27 00:16:50;;;;;;;7.05;2.88;;;11.10;99.90;;;;;;5027777;28;20555;-66
2021/03/27 00:19:24;;;;;;;5.82;3.50;;;11.10;99.90;;;;;;5025300;28;20033;-65
2021/03/27 00:21:58;;;;;;;5.82;2.80;;;11.20;99.90;;;;;;5025961;28;20112;-66
2021/03/27 00:24:54;;;;;;;8.70;3.25;;;11.20;99.90;;;;;;5025086;28;20053;-66
2021/03/27 00:27:25;;;;;;;6.47;3.30;;;11.00;99.90;;;;;;5021074;28;20021;-65
2021/03/27 00:29:57;;;;;;;5.70;3.33;;;11.00;99.90;;;;;;5022385;28;20568;-66
2021/03/27 00:32:34;;;;;;;9.75;3.25;;;11.20;99.90;;;;;;5017730;28;20021;-66
2021/03/27 00:35:36;;;;;;;11.90;3.33;;;11.20;99.90;;;;;;5027387;28;20061;-65
2021/03/27 00:38:07;;;;;;;7.50;2.78;;;11.10;99.90;;;;;;5021577;28;20033;-66
2021/03/27 00:40:39;;;;;;;7.70;3.10;;;11.10;99.90;;;;;;5025257;28;20179;-66
2021/03/27 00:43:34;;;;;;;9.50;2.83;;;11.00;99.90;;;;;;5031131;28;20079;-66
2021/03/27 00:46:06;;;;;;;6.60;2.88;;;11.20;99.90;;;;;;5025933;28;20604;-65
2021/03/27 00:48:47;;;;;;;7.60;2.80;;;11.10;99.90;;;;;;5028319;28;20037;-65
2021/03/27 00:51:15;;;;;;;6.82;3.47;;;10.90;99.90;;;;;;5026919;28;20031;-65
2021/03/27 00:54:01;;;;;;;6.03;3.30;;;10.80;99.90;;;;;;5028506;28;20079;-66
2021/03/27 00:56:59;;;;;;;7.07;3.40;;;10.90;99.90;;;;;;5029566;28;20037;-65
2021/03/27 00:59:29;;;;;;;7.85;3.67;;;10.80;99.90;;;;;;5017773;28;20017;-65
2021/03/27 01:01:57;;;;;;;12.55;3.88;;;10.80;99.90;;;;;;5026484;28;20033;-66
2021/03/27 01:04:28;;;;;;;7.00;3.20;;;10.90;99.90;;;;;;5026700;28;20017;-65
2021/03/27 01:07:02;;;;;;;6.30;3.70;;;10.90;99.90;;;;;;5023473;28;20052;-65
2021/03/27 01:09:46;;;;;;;11.35;3.97;;;10.70;99.90;;;;;;5019700;28;20063;-65
2021/03/27 01:12:16;;;;;;;12.55;4.22;;;10.80;99.90;;;;;;5027975;28;20048;-65
2021/03/27 01:14:50;;;;;;;5.97;3.75;;;10.60;99.90;;;;;;5027086;28;20483;-65
2021/03/27 01:17:19;;;;;;;12.02;3.83;;;10.80;99.90;;;;;;5027967;28;20029;-65
2021/03/27 01:20:00;;;;;;;10.18;3.65;;;10.70;99.90;;;;;;5026004;28;20112;-65
2021/03/27 01:22:28;;;;;;;6.97;3.67;;;10.60;99.90;;;;;;5024062;28;20517;-65
2021/03/27 01:25:02;;;;;;;9.77;3.92;;;10.80;99.90;;;;;;5028138;28;20033;-65
2021/03/27 01:28:03;;;;;;;7.80;3.78;;;10.70;99.90;;;;;;5025517;28;20036;-65
2021/03/27 01:30:34;;;;;;;9.65;3.83;;;10.70;99.90;;;;;;5015778;28;20065;-66
2021/03/27 01:33:34;;;;;;;5.25;3.58;;;10.80;99.90;;;;;;5019658;28;20037;-65
2021/03/27 01:36:07;;;;;;;7.45;3.90;;;10.70;99.90;;;;;;5024456;28;20036;-66
2021/03/27 01:38:58;;;;;;;9.80;4.05;;;10.70;99.90;;;;;;5028154;28;20108;-66
2021/03/27 01:41:45;;;;;;;12.35;4.90;;;10.80;99.90;;;;;;5021354;28;20524;-66
2021/03/27 01:44:39;;;;;;;9.82;4.25;;;10.70;99.90;;;;;;5021822;28;20046;-66
2021/03/27 01:47:30;;;;;;;9.63;4.35;;;10.70;99.90;;;;;;5028397;28;20078;-66
2021/03/27 01:50:08;;;;;;;9.68;4.90;;;10.50;99.90;;;;;;5026503;28;20041;-65
2021/03/27 01:52:45;;;;;;;11.77;4.82;;;10.70;99.90;;;;;;5026870;28;20576;-65
2021/03/27 01:55:48;;;;;;;13.18;5.25;;;10.60;99.90;;;;;;5025771;28;20029;-65
2021/03/27 01:58:29;;;;;;;13.13;5.15;;;10.70;99.90;;;;;;5025645;28;20036;-65
2021/03/27 02:01:15;;;;;;;9.07;4.78;;;10.80;99.90;;;;;;5024227;28;20599;-65
2021/03/27 02:03:53;;;;;;;14.65;4.95;;;10.70;99.90;;;;;;5027143;28;20050;-66
2021/03/27 02:06:30;;;;;;;8.30;4.47;;;10.80;99.90;;;;;;5023531;28;20100;-65
2021/03/27 02:09:08;;;;;;;11.20;5.65;;;10.90;99.90;;;;;;5018084;28;20029;-65
2021/03/27 02:11:51;;;;;;;9.23;4.78;;;10.90;99.90;;;;;;5029078;28;20036;-65
2021/03/27 02:14:25;;;;;;;7.85;4.18;;;10.70;99.90;;;;;;5018435;28;20050;-66
2021/03/27 02:16:58;;;;;;;12.30;5.35;;;10.90;99.90;;;;;;5028867;28;20026;-67
2021/03/27 02:19:36;;;;;;;13.02;4.70;;;10.80;99.90;;;;;;5022953;28;20626;-66
2021/03/27 02:22:20;;;;;;;8.65;4.90;;;10.80;99.90;;;;;;5020625;28;20018;-66
2021/03/27 02:25:09;;;;;;;12.57;5.00;;;10.80;99.90;;;;;;5018907;28;20108;-65
2021/03/27 02:27:56;;;;;;;7.47;4.30;;;10.70;99.90;;;;;;5029105;28;20018;-66
2021/03/27 02:30:45;;;;;;;13.35;4.68;;;10.50;99.90;;;;;;5022339;28;20033;-65
2021/03/27 02:33:19;;;;;;;12.25;4.55;;;10.60;99.90;;;;;;5028185;28;20022;-66
2021/03/27 02:36:21;;;;;;;12.05;4.45;;;10.70;99.90;;;;;;5023026;28;20018;-66
2021/03/27 02:39:38;;;;;;;14.40;4.35;;;10.50;99.90;;;;;;5025896;28;20097;-66
2021/03/27 02:42:26;;;;;;;9.57;4.95;;;10.50;99.90;;;;;;5026894;28;20032;-66
2021/03/27 02:45:09;;;;;;;10.55;5.97;;;10.40;99.90;;;;;;5023523;28;20060;-65
2021/03/27 02:48:13;;;;;;;9.82;5.05;;;10.50;99.90;;;;;;5016747;28;20030;-65
2021/03/27 02:51:04;;;;;;;10.40;4.60;;;10.30;99.90;;;;;;5019957;28;20045;-66
2021/03/27 02:53:56;;;;;;;9.70;5.03;;;10.40;99.90;;;;;;5027069;28;20026;-66
2021/03/27 02:56:54;;;;;;;10.23;5.15;;;10.40;99.90;;;;;;5024813;28;20030;-66
2021/03/27 02:59:31;;;;;;;10.82;5.32;;;10.40;99.90;;;;;;5025030;28;20038;-65
2021/03/27 03:02:19;;;;;;;7.20;4.80;;;10.40;99.90;;;;;;5022655;28;20513;-66
2021/03/27 03:04:48;;;;;;;10.38;5.13;;;10.50;99.90;;;;;;5022282;28;20025;-65
2021/03/27 03:07:52;;;;;;;11.90;5.28;;;10.40;99.90;;;;;;5027607;28;20049;-66
2021/03/27 03:10:42;;;;;;;12.15;4.68;;;10.40;99.90;;;;;;5025693;28;20122;-65
2021/03/27 03:13:29;;;;;;;10.35;4.47;;;10.60;99.90;;;;;;5028089;28;20028;-66
2021/03/27 03:16:14;;;;;;;;;;;10.40;99.90;;;;;;5023442;28;20441;-66
2021/03/27 03:19:16;;;;;;;6.07;4.05;;;10.30;99.90;;;;;;5026563;28;19913;-66
2021/03/27 03:21:47;;;;;;;10.13;4.13;;;10.40;99.90;;;;;;5023639;28;20029;-66
2021/03/27 03:24:29;;;;;;;10.57;3.88;;;10.30;99.90;;;;;;5022074;28;20087;-66
2021/03/27 03:27:13;;;;;;;10.38;3.90;;;10.30;99.90;;;;;;5028013;28;20021;-66
2021/03/27 03:29:51;;;;;;;11.02;3.35;;;10.30;99.90;;;;;;5022429;28;20140;-66
2021/03/27 03:32:35;;;;;;;9.75;3.60;;;10.40;99.90;;;;;;5028066;28;20047;-66
2021/03/27 03:35:12;;;;;;;7.57;3.22;;;10.40;99.90;;;;;;5021070;28;20034;-66
2021/03/27 03:37:51;;;;;;;11.80;3.63;;;10.30;99.90;;;;;;5030867;28;20376;-66
2021/03/27 03:40:43;;;;;;;8.02;3.35;;;10.30;99.90;;;;;;5021177;28;20622;-66
2021/03/27 03:43:22;;;;;;;9.38;3.50;;;10.20;99.90;;;;;;5031968;28;20537;-66
2021/03/27 03:46:08;;;;;;;6.95;2.95;;;10.20;99.90;;;;;;5022487;28;20024;-66
2021/03/27 03:48:58;;;;;;;8.57;3.33;;;10.30;99.90;;;;;;5029976;28;20037;-66
2021/03/27 03:51:24;;;;;;;12.00;3.60;;;10.10;99.90;;;;;;5027773;28;20560;-66
2021/03/27 03:54:04;;;;;;;15.30;3.38;;;10.20;99.90;;;;;;5026778;28;20021;-66
2021/03/27 03:56:33;;;;;;;9.13;3.38;;;10.20;99.90;;;;;;5026306;28;20064;-66
2021/03/27 03:59:24;;;;;;;8.38;3.40;;;10.30;99.90;;;;;;5022575;28;20418;-66
2021/03/27 04:02:02;;;;;;;11.32;2.75;;;10.20;99.90;;;;;;5026899;28;20040;-66
2021/03/27 04:04:32;;;;;;;8.70;2.88;;;10.10;99.90;;;;;;5020679;28;20351;-66
2021/03/27 04:07:05;;;;;;;7.32;2.63;;;10.20;99.90;;;;;;5029716;28;20056;-66
2021/03/27 04:09:40;;;;;;;11.45;2.83;;;10.30;99.90;;;;;;5029149;28;20037;-66
2021/03/27 04:12:30;;;;;;;10.37;3.00;;;10.10;99.90;;;;;;5030743;28;20079;-66
2021/03/27 04:15:19;;;;;;;8.35;2.35;;;10.20;99.90;;;;;;5028869;28;20277;-66
2021/03/27 04:17:51;;;;;;;16.23;3.22;;;10.20;99.90;;;;;;5029942;28;20021;-66
2021/03/27 04:20:23;;;;;;;17.38;3.05;;;9.90;99.90;;;;;;5027840;28;20060;-66
2021/03/27 04:23:29;;;;;;;7.30;2.45;;;10.10;99.90;;;;;;5029492;28;20021;-66
2021/03/27 04:26:04;;;;;;;11.47;3.07;;;10.00;99.90;;;;;;5025936;28;20034;-66
2021/03/27 04:28:52;;;;;;;9.90;3.15;;;9.90;99.90;;;;;;5029365;28;20194;-66
2021/03/27 04:31:23;;;;;;;8.80;2.35;;;10.00;99.90;;;;;;5024091;28;20076;-66
2021/03/27 04:34:20;;;;;;;10.65;2.53;;;9.90;99.90;;;;;;5028157;28;20026;-67
2021/03/27 04:37:10;;;;;;;9.48;2.40;;;9.90;99.90;;;;;;5024135;28;20050;-66
2021/03/27 04:40:01;;;;;;;12.00;2.90;;;9.80;99.90;;;;;;5024247;28;20029;-66
2021/03/27 04:43:08;;;;;;;10.20;2.15;;;9.90;99.90;;;;;;5031001;28;20128;-66
2021/03/27 04:45:51;;;;;;;9.93;2.63;;;9.90;99.90;;;;;;5023777;28;20033;-66
2021/03/27 04:48:41;;;;;;;16.77;3.00;;;10.10;99.90;;;;;;5029514;28;20026;-67
2021/03/27 04:51:25;;;;;;;8.27;2.75;;;9.90;99.90;;;;;;5025540;28;20033;-66
2021/03/27 04:54:03;;;;;;;9.57;2.47;;;9.70;99.90;;;;;;5015770;28;20034;-67
2021/03/27 04:56:53;;;;;;;11.00;2.17;;;9.70;99.90;;;;;;5023889;28;20014;-66
2021/03/27 04:59:37;;;;;;;8.60;2.35;;;9.60;99.90;;;;;;5018715;28;20386;-66
2021/03/27 05:02:04;;;;;;;10.38;2.55;;;9.60;99.90;;;;;;5028960;28;20048;-66
2021/03/27 05:05:04;;;;;;;12.25;2.40;;;9.60;99.90;;;;;;5026379;28;20025;-66
2021/03/27 05:07:37;;;;;;;11.35;2.50;;;9.40;99.90;;;;;;5028457;28;20106;-66
2021/03/27 05:10:26;;;;;;;17.45;2.53;;;9.60;99.90;;;;;;5021301;28;20030;-67
2021/03/27 05:12:59;;;;;;;18.63;2.92;;;9.50;99.90;;;;;;5017262;28;20053;-66
2021/03/27 05:15:49;;;;;;;7.00;2.30;;;9.50;99.90;;;;;;5026500;28;20029;-66
2021/03/27 05:18:39;;;;;;;13.45;2.70;;;9.30;99.90;;;;;;5019001;28;20037;-67
2021/03/27 05:21:28;;;;;;;11.73;2.45;;;9.30;99.90;;;;;;5025421;28;20489;-66
2021/03/27 05:24:28;;;;;;;14.18;2.50;;;9.30;99.90;;;;;;5026745;28;20506;-66
2021/03/27 05:27:13;;;;;;;20.02;2.90;;;9.40;99.90;;;;;;5013555;28;20029;-66
2021/03/27 05:29:56;;;;;;;9.60;2.75;;;9.50;99.90;;;;;;5023016;28;20120;-66
2021/03/27 05:32:37;;;;;;;11.00;2.13;;;9.50;99.90;;;;;;5025702;28;20505;-66
2021/03/27 05:35:59;;;;;;;17.50;3.20;;;9.50;99.90;;;;;;5019505;28;20040;-66
2021/03/27 05:38:54;;;;;;;12.43;2.05;;;9.50;99.90;;;;;;4968038;28;20514;-66
2021/03/27 05:41:54;;;;;;;15.93;2.70;;;9.40;99.90;;;;;;5026121;28;20033;-66
2021/03/27 05:45:02;;;;;;;14.73;2.92;;;9.60;99.90;;;;;;5023244;28;20034;-66
2021/03/27 05:47:46;;;;;;;13.50;2.60;;;9.50;99.90;;;;;;5020773;28;20541;-66
2021/03/27 05:50:36;;;;;;;18.08;2.97;;;9.50;99.90;;;;;;5023150;28;20033;-66
2021/03/27 05:53:35;;;;;;;9.02;2.20;;;9.50;99.90;;;;;;5024443;28;20030;-67
2021/03/27 05:56:21;;;;;;;10.38;2.78;;;9.50;99.90;;;;;;5025516;28;20037;-66
2021/03/27 05:59:21;;;;;;;18.17;2.85;;;9.40;99.90;;;;;;5013171;28;20053;-67
2021/03/27 06:02:08;;;;;;;11.02;2.95;;;9.40;99.90;;;;;;5021905;28;20029;-67
2021/03/27 06:05:11;;;;;;;10.52;2.30;;;9.40;99.90;;;;;;5023914;28;20018;-67
2021/03/27 06:08:06;;;;;;;17.92;2.78;;;10.00;99.90;;;;;;5018133;28;20433;-67
2021/03/27 06:10:56;;;;;;;12.00;2.63;;;9.30;99.90;;;;;;5022038;28;20037;-68
2021/03/27 06:13:27;;;;;;;10.45;2.90;;;9.30;99.90;;;;;;5028550;28;20386;-67
2021/03/27 06:16:12;;;;;;;22.52;3.40;;;9.20;99.90;;;;;;5026132;28;20098;-67
2021/03/27 06:18:59;;;;;;;14.52;2.80;;;9.20;99.90;;;;;;5019107;28;20025;-65
2021/03/27 06:22:11;;;;;;;11.55;3.55;;;9.10;99.90;;;;;;5017983;28;20045;-67
2021/03/27 06:24:50;;;;;;;12.50;2.90;;;9.00;99.90;;;;;;5020364;28;20029;-67
2021/03/27 06:27:34;;;;;;;11.68;3.03;;;9.00;99.90;;;;;;5020805;28;20029;-67
2021/03/27 06:30:21;;;;;;;17.35;2.95;;;9.00;99.90;;;;;;5026620;28;20391;-66
2021/03/27 06:33:11;;;;;;;18.52;3.72;;;9.10;99.90;;;;;;5016801;28;20494;-67
2021/03/27 06:35:43;;;;;;;14.98;3.45;;;9.10;99.90;;;;;;5025617;28;20243;-67
2021/03/27 06:38:33;;;;;;;17.00;2.97;;;9.10;99.90;;;;;;5017386;28;20049;-65
2021/03/27 06:41:10;;;;;;;14.25;3.03;;;9.20;99.90;;;;;;5022334;28;20029;-68
2021/03/27 06:44:13;;;;;;;16.80;3.03;;;9.10;99.90;;;;;;5014001;28;20029;-67
2021/03/27 06:46:59;;;;;;;16.20;2.72;;;9.40;99.90;;;;;;5027166;28;20024;-68
2021/03/27 06:49:38;;;;;;;;;;;9.30;99.90;;;;;;5022245;28;20079;-67
2021/03/27 06:52:13;;;;;;;9.07;2.33;;;9.30;99.90;;;;;;5020820;28;19905;-67
2021/03/27 06:55:03;;;;;;;13.25;2.88;;;9.30;99.90;;;;;;5021321;28;20041;-67
2021/03/27 06:57:50;;;;;;;11.00;2.75;;;9.40;99.90;;;;;;5028428;28;20057;-67
2021/03/27 07:00:37;;;;;;;13.90;3.40;;;9.40;99.90;;;;;;5020960;28;20096;-67
2021/03/27 07:03:38;;;;;;;17.65;3.28;;;9.40;99.90;;;;;;5014400;28;20061;-66
2021/03/27 07:06:35;;;;;;;19.30;3.80;;;9.30;99.90;;;;;;5049460;28;20986;-65
2021/03/27 07:09:26;;;;;;;22.67;3.08;;;9.40;99.90;;;;;;5026214;28;20029;-65
2021/03/27 07:12:20;;;;;;;19.70;3.28;;;9.30;99.90;;;;;;5029328;28;20450;-65
2021/03/27 07:14:49;;;;;;;17.05;3.03;;;9.50;99.90;;;;;;5028146;28;20018;-66
2021/03/27 07:17:59;;;;;;;17.52;3.28;;;9.40;99.90;;;;;;5030721;28;20129;-66
2021/03/27 07:20:33;;;;;;;15.45;2.55;;;9.50;99.90;;;;;;5027006;28;20045;-66
2021/03/27 07:23:14;;;;;;;17.30;2.70;;;9.50;99.90;;;;;;5016515;28;20199;-66
2021/03/27 07:26:17;;;;;;;15.25;3.10;;;9.60;99.90;;;;;;5028881;28;20030;-66
2021/03/27 07:29:01;;;;;;;13.40;2.85;;;9.50;99.90;;;;;;5024036;28;20029;-66
2021/03/27 07:31:49;;;;;;;10.30;2.80;;;9.80;99.90;;;;;;5025618;28;20061;-65
2021/03/27 07:34:50;;;;;;;15.82;3.35;;;9.60;99.90;;;;;;5021073;28;20044;-66
2021/03/27 07:37:40;;;;;;;20.02;3.72;;;9.90;99.90;;;;;;5029380;28;20017;-66
2021/03/27 07:40:14;;;;;;;20.58;3.80;;;10.00;99.90;;;;;;5023972;28;20393;-66
2021/03/27 07:43:06;;;;;;;12.80;3.13;;;9.90;99.90;;;;;;5018566;28;20060;-67
2021/03/27 07:46:01;;;;;;;18.38;2.83;;;10.10;99.90;;;;;;5021927;28;20033;-66
2021/03/27 07:48:45;;;;;;;12.20;2.83;;;10.00;99.90;;;;;;5030956;28;20021;-66
2021/03/27 07:51:42;;;;;;;15.00;3.03;;;10.30;99.90;;;;;;5026430;28;20026;-66
2021/03/27 07:54:26;;;;;;;10.30;2.87;;;10.50;99.90;;;;;;5029203;28;20403;-66
2021/03/27 07:57:10;;;;;;;21.38;3.38;;;10.30;99.90;;;;;;5012722;28;20273;-66
2021/03/27 08:00:01;;;;;;;14.82;2.70;;;10.40;99.90;;;;;;5019069;28;20036;-66
2021/03/27 08:02:57;;;;;;;19.63;3.80;;;10.60;99.90;;;;;;5014590;28;20033;-68
2021/03/27 08:05:37;;;;;;;15.35;3.10;;;10.70;99.90;;;;;;5025686;28;20022;-66
2021/03/27 08:08:18;;;;;;;18.58;3.90;;;10.70;99.90;;;;;;5031577;28;20034;-66
2021/03/27 08:10:55;;;;;;;17.45;3.10;;;10.60;99.90;;;;;;5020595;28;20049;-68
2021/03/27 08:13:33;;;;;;;10.38;3.17;;;10.70;99.90;;;;;;5031045;28;20080;-66
2021/03/27 08:16:44;;;;;;;14.10;3.42;;;10.90;99.90;;;;;;5028615;28;20029;-67
2021/03/27 08:19:45;;;;;;;17.63;4.00;;;11.10;99.90;;;;;;5018944;28;20030;-66
2021/03/27 08:22:26;;;;;;;15.65;3.08;;;11.20;99.90;;;;;;5017732;28;20021;-66
2021/03/27 08:25:06;;;;;;;12.13;3.17;;;11.70;99.90;;;;;;5019428;28;20036;-67
2021/03/27 08:27:47;;;;;;;16.63;3.08;;;11.90;99.90;;;;;;5021034;28;20545;-64
2021/03/27 08:30:34;;;;;;;14.65;2.88;;;12.00;99.90;;;;;;5021646;28;20044;-68
2021/03/27 08:33:27;;;;;;;15.27;2.97;;;11.90;99.90;;;;;;5021251;28;20017;-67
2021/03/27 08:36:30;;;;;;;14.70;2.97;;;12.10;99.90;;;;;;5022342;28;20032;-66
2021/03/27 08:39:20;;;;;;;15.20;2.70;;;12.10;99.90;;;;;;5018465;28;20163;-66
2021/03/27 08:42:17;;;;;;;14.02;2.78;;;12.00;99.90;;;;;;5016878;28;20495;-66
2021/03/27 08:44:51;;;;;;;15.25;2.70;;;11.80;99.90;;;;;;5020871;28;20502;-67
2021/03/27 08:47:43;;;;;;;14.25;2.75;;;11.60;99.90;;;;;;5030413;28;20040;-66
2021/03/27 08:50:21;;;;;;;13.10;2.45;;;12.10;99.90;;;;;;5022087;28;20445;-66
2021/03/27 08:53:30;;;;;;;15.60;2.70;;;12.50;99.90;;;;;;5030495;28;20039;-66
2021/03/27 08:56:26;;;;;;;19.02;3.28;;;12.30;99.90;;;;;;5023109;28;20033;-66
2021/03/27 08:59:23;;;;;;;12.38;2.75;;;12.40;99.90;;;;;;5028104;28;20038;-67
2021/03/27 09:02:11;;;;;;;12.35;2.33;;;12.40;99.90;;;;;;5017933;28;20037;-67
2021/03/27 09:05:22;;;;;;;13.52;2.67;;;12.80;99.90;;;;;;5026121;28;20044;-66
2021/03/27 09:07:53;;;;;;;14.18;2.90;;;12.50;99.90;;;;;;5027016;28;20125;-66
2021/03/27 09:11:08;;;;;;;10.27;2.80;;;12.80;99.90;;;;;;5025317;28;20387;-67
2021/03/27 09:13:36;;;;;;;12.35;2.22;;;13.10;99.90;;;;;;5016666;28;20045;-66
2021/03/27 09:16:11;;;;;;;14.77;2.88;;;13.60;99.90;;;;;;5024591;28;20025;-66
2021/03/27 09:18:43;;;;;;;21.48;3.42;;;13.60;99.90;;;;;;5015705;28;20528;-64
2021/03/27 09:21:21;;;;;;;8.20;2.78;;;13.60;99.90;;;;;;5023357;28;20025;-64
2021/03/27 09:23:54;;;;;;;23.10;3.47;;;13.40;99.90;;;;;;5028165;28;20437;-66
2021/03/27 09:26:36;;;;;;;14.88;2.65;;;13.20;99.90;;;;;;5019217;28;20025;-65
2021/03/27 09:29:25;;;;;;;10.95;2.38;;;13.70;99.90;;;;;;5026483;28;20032;-66
2021/03/27 09:32:04;;;;;;;28.92;4.07;;;13.60;99.90;;;;;;5028572;28;20064;-66
2021/03/27 09:34:57;;;;;;;16.13;2.92;;;13.40;99.90;;;;;;5021288;28;20028;-66
2021/03/27 09:37:34;;;;;;;22.50;3.15;;;13.70;99.90;;;;;;5021245;28;20025;-66
2021/03/27 09:40:23;;;;;;;10.82;1.98;;;13.80;99.90;;;;;;5023820;28;20025;-66
2021/03/27 09:43:09;;;;;;;11.43;2.45;;;13.80;99.90;;;;;;5021479;28;20025;-66
2021/03/27 09:45:54;;;;;;;;;;;13.60;99.90;;;;;;5023633;28;20029;-66
2021/03/27 09:48:47;;;;;;;9.77;2.25;;;13.70;99.90;;;;;;5029355;28;19913;-66
2021/03/27 09:51:51;;;;;;;13.00;2.42;;;13.60;99.90;;;;;;5026414;28;20514;-66
2021/03/27 09:54:33;;;;;;;11.13;2.60;;;13.60;99.90;;;;;;5027001;28;20017;-66
2021/03/27 09:57:24;;;;;;;14.88;2.28;;;14.20;99.90;;;;;;5012440;28;20422;-65
2021/03/27 10:00:02;;;;;;;9.05;2.47;;;14.50;99.90;;;;;;5016090;28;20033;-66
2021/03/27 10:02:42;;;;;;;10.77;3.00;;;13.60;99.90;;;;;;5015041;28;20025;-66
2021/03/27 10:05:29;;;;;;;12.43;2.75;;;13.60;99.90;;;;;;5019476;28;20030;-68
2021/03/27 10:08:18;;;;;;;13.48;2.72;;;13.60;99.90;;;;;;5012029;28;20442;-66
2021/03/27 10:10:59;;;;;;;13.95;2.50;;;14.00;99.90;;;;;;5024564;28;20044;-66
2021/03/27 10:13:57;;;;;;;16.00;2.72;;;14.80;99.90;;;;;;5012357;28;20494;-66
2021/03/27 10:16:49;;;;;;;13.30;2.53;;;14.60;99.90;;;;;;5020217;28;20021;-68
2021/03/27 10:19:18;;;;;;;11.13;2.30;;;14.30;99.90;;;;;;5022746;28;20030;-66
2021/03/27 10:21:52;;;;;;;12.10;2.45;;;14.70;99.90;;;;;;5025809;28;20030;-65
2021/03/27 10:24:37;;;;;;;11.10;2.55;;;14.70;99.90;;;;;;5020286;28;20026;-66
2021/03/27 10:27:21;;;;;;;13.73;2.58;;;14.90;99.90;;;;;;5021570;28;20013;-66
2021/03/27 10:30:14;;;;;;;7.80;2.55;;;14.60;99.90;;;;;;5023126;28;20043;-66
2021/03/27 10:32:57;;;;;;;5.97;2.13;;;14.20;99.90;;;;;;5024251;28;20029;-66
2021/03/27 10:35:52;;;;;;;9.60;2.47;;;14.10;99.90;;;;;;5022455;28;20511;-66
2021/03/27 10:38:21;;;;;;;9.40;2.50;;;13.50;99.90;;;;;;5025803;28;20087;-65
2021/03/27 10:41:17;;;;;;;8.35;2.40;;;13.60;99.90;;;;;;5025143;28;20106;-65
2021/03/27 10:43:46;;;;;;;9.50;1.75;;;13.50;99.90;;;;;;4995313;28;20434;-65
2021/03/27 10:46:31;;;;;;;12.98;2.28;;;13.50;99.90;;;;;;5024353;28;20029;-65
2021/03/27 10:49:27;;;;;;;7.60;2.00;;;13.70;99.90;;;;;;5025763;28;20025;-66
2021/03/27 10:52:22;;;;;;;10.95;2.50;;;13.80;99.90;;;;;;5026082;28;20074;-66
2021/03/27 10:54:51;;;;;;;11.57;2.95;;;13.80;99.90;;;;;;5023095;28;20045;-66
2021/03/27 10:57:22;;;;;;;12.85;2.03;;;13.90;99.90;;;;;;5025224;28;20030;-66
2021/03/27 11:00:07;;;;;;;9.98;1.98;;;13.80;99.90;;;;;;5015825;28;20091;-65
2021/03/27 11:03:02;;;;;;;7.95;2.00;;;13.80;99.90;;;;;;5022537;28;20025;-66
2021/03/27 11:05:36;;;;;;;8.27;2.47;;;14.00;99.90;;;;;;5017262;28;20045;-67
2021/03/27 11:08:31;;;;;;;9.05;2.08;;;14.10;99.90;;;;;;5019770;28;20040;-67
2021/03/27 11:11:18;;;;;;;7.95;1.98;;;14.20;99.90;;;;;;5021135;28;20048;-66
2021/03/27 11:14:07;;;;;;;8.57;2.15;;;14.10;99.90;;;;;;5042778;28;20513;-65
2021/03/27 11:16:45;;;;;;;10.38;1.90;;;14.00;99.90;;;;;;5012892;28;20117;-65
2021/03/27 11:19:45;;;;;;;6.65;1.85;;;14.20;99.90;;;;;;5017715;28;20125;-66
2021/03/27 11:22:24;;;;;;;7.15;1.90;;;14.20;99.90;;;;;;5013448;28;20041;-67
2021/03/27 11:25:07;;;;;;;10.27;1.95;;;14.10;99.90;;;;;;5014232;28;20022;-66
2021/03/27 11:27:46;;;;;;;8.45;1.73;;;14.50;99.90;;;;;;5022517;28;20079;-65
2021/03/27 11:30:23;;;;;;;6.55;1.90;;;14.60;99.90;;;;;;5023050;28;20038;-65
2021/03/27 11:32:58;;;;;;;8.63;2.30;;;15.20;99.90;;;;;;5023912;28;20032;-65
2021/03/27 11:35:37;;;;;;;6.85;2.05;;;15.90;99.90;;;;;;5021427;28;20029;-65
2021/03/27 11:38:21;;;;;;;9.15;1.77;;;16.70;99.90;;;;;;5024747;28;20025;-67
2021/03/27 11:40:54;;;;;;;7.72;2.10;;;16.60;99.90;;;;;;5022362;28;20079;-65
2021/03/27 11:43:28;;;;;;;4.93;1.77;;;16.40;99.90;;;;;;5012118;28;20110;-67
2021/03/27 11:46:09;;;;;;;8.07;1.95;;;15.90;99.90;;;;;;5021259;28;20040;-66
2021/03/27 11:49:09;;;;;;;7.43;1.55;;;15.70;99.90;;;;;;5016079;28;20098;-66
2021/03/27 11:51:47;;;;;;;13.48;1.85;;;16.30;99.90;;;;;;5015929;28;20601;-66
2021/03/27 11:54:49;;;;;;;8.13;2.20;;;15.20;99.80;;;;;;5012647;28;20018;-66
2021/03/27 11:57:45;;;;;;;3.88;1.60;;;15.70;99.90;;;;;;5025018;28;20057;-66
2021/03/27 12:01:00;;;;;;;7.10;1.80;;;15.30;99.30;;;;;;5028857;28;20036;-66
2021/03/27 12:03:47;;;;;;;5.15;1.83;;;15.40;99.40;;;;;;5030394;28;20052;-65
2021/03/27 12:06:38;;;;;;;7.85;1.85;;;16.50;99.90;;;;;;5025803;28;20069;-66
2021/03/27 12:09:09;;;;;;;5.40;1.80;;;16.90;98.20;;;;;;5025608;28;20018;-66
2021/03/27 12:11:59;;;;;;;8.18;2.35;;;17.00;98.00;;;;;;5030739;28;20060;-66
2021/03/27 12:14:48;;;;;;;13.88;2.25;;;16.70;97.80;;;;;;5027290;28;20536;-65
2021/03/27 12:17:29;;;;;;;4.97;1.90;;;16.70;99.20;;;;;;5007045;28;20046;-66
2021/03/27 12:20:29;;;;;;;4.88;1.58;;;16.70;98.40;;;;;;5021635;28;20478;-66
2021/03/27 12:23:02;;;;;;;9.48;1.95;;;16.40;99.70;;;;;;5028493;28;20017;-66
2021/03/27 12:25:49;;;;;;;4.80;1.48;;;17.50;98.20;;;;;;5026844;28;20021;-65
2021/03/27 12:28:41;;;;;;;5.38;1.70;;;17.50;97.00;;;;;;5017901;28;20494;-66
2021/03/27 12:31:35;;;;;;;5.47;1.42;;;16.90;98.30;;;;;;5025880;28;20050;-66
2021/03/27 12:34:42;;;;;;;7.53;1.45;;;16.80;98.50;;;;;;5021574;28;20375;-64
2021/03/27 12:37:21;;;;;;;6.30;1.60;;;16.30;98.90;;;;;;5008019;28;20045;-66
2021/03/27 12:39:59;;;;;;;5.05;1.55;;;16.40;98.80;;;;;;5021762;28;20029;-66
2021/03/27 12:42:40;;;;;;;6.28;1.73;;;16.40;97.90;;;;;;5031120;28;20056;-66
2021/03/27 12:45:48;;;;;;;5.45;1.45;;;16.60;96.80;;;;;;5024937;28;20018;-66
2021/03/27 12:48:26;;;;;;;;;;;17.70;97.50;;;;;;5028588;28;20029;-68
2021/03/27 12:51:20;;;;;;;5.00;1.58;;;17.50;97.50;;;;;;5026822;28;20290;-66
2021/03/27 12:53:52;;;;;;;4.10;1.67;;;17.90;96.80;;;;;;5025366;28;20497;-65
2021/03/27 12:56:45;;;;;;;7.20;1.60;;;17.90;96.50;;;;;;5024735;28;20506;-66
2021/03/27 12:59:34;;;;;;;9.68;1.58;;;18.20;94.50;;;;;;5016596;28;20034;-69
2021/03/27 13:02:23;;;;;;;10.55;1.38;;;18.40;94.50;;;;;;5017785;28;20030;-66
2021/03/27 13:05:03;;;;;;;6.82;1.42;;;19.30;94.60;;;;;;5015527;28;20029;-65
2021/03/27 13:07:53;;;;;;;5.85;1.80;;;18.70;94.70;;;;;;5028182;28;20125;-66
2021/03/27 13:10:47;;;;;;;5.15;1.75;;;17.60;94.60;;;;;;5024126;28;20572;-65
2021/03/27 13:13:51;;;;;;;6.40;1.60;;;17.40;95.40;;;;;;5038638;28;20017;-65
2021/03/27 13:16:32;;;;;;;9.48;1.88;;;17.30;94.50;;;;;;5025545;28;20053;-66
2021/03/27 13:19:32;;;;;;;7.95;1.83;;;17.90;95.30;;;;;;5027339;28;20021;-66
2021/03/27 13:22:10;;;;;;;4.00;1.48;;;18.50;93.40;;;;;;5022225;28;20026;-66
2021/03/27 13:24:35;;;;;;;4.55;1.40;;;19.60;94.10;;;;;;5024118;28;20021;-66
2021/03/27 13:27:14;;;;;;;4.93;1.67;;;19.50;93.10;;;;;;5020561;28;20040;-66
2021/03/27 13:29:43;;;;;;;3.45;1.38;;;19.50;94.30;;;;;;5018947;28;20438;-66
2021/03/27 13:32:17;;;;;;;6.57;1.50;;;20.00;93.50;;;;;;5020794;28;20018;-66
2021/03/27 13:35:14;;;;;;;5.38;1.63;;;20.00;92.60;;;;;;5017856;28;20029;-67
2021/03/27 13:37:51;;;;;;;16.42;2.22;;;19.70;92.50;;;;;;5014224;28;20230;-66
2021/03/27 13:40:26;;;;;;;4.90;1.50;;;19.10;93.00;;;;;;5019880;28;20028;-67
2021/03/27 13:42:57;;;;;;;5.28;1.80;;;19.60;93.10;;;;;;5028834;28;20489;-65
2021/03/27 13:46:05;;;;;;;4.38;1.77;;;19.40;92.20;;;;;;5014498;28;20602;-65
2021/03/27 13:48:59;;;;;;;10.10;1.83;;;18.40;93.10;;;;;;5004238;28;20733;-68
2021/03/27 13:51:34;;;;;;;6.00;1.50;;;18.90;92.00;;;;;;5025759;28;20084;-65
2021/03/27 13:54:31;;;;;;;5.22;1.55;;;20.40;92.10;;;;;;5027043;28;20075;-65
2021/03/27 13:57:26;;;;;;;4.75;1.83;;;19.70;90.90;;;;;;5027428;28;20030;-66
2021/03/27 14:00:27;;;;;;;5.90;1.73;;;20.70;91.80;;;;;;5021505;28;20049;-66
2021/03/27 14:03:15;;;;;;;5.88;1.63;;;21.40;91.60;;;;;;5028422;28;20532;-65
2021/03/27 14:06:03;;;;;;;6.40;1.80;;;20.60;90.20;;;;;;5016958;28;20050;-65
2021/03/27 14:08:32;;;;;;;7.05;1.98;;;19.00;91.20;;;;;;5015025;28;20033;-70
2021/03/27 14:11:19;;;;;;;6.28;1.70;;;19.20;91.80;;;;;;5019500;28;20072;-65
2021/03/27 14:13:52;;;;;;;5.53;2.00;;;19.70;92.00;;;;;;5026806;28;20025;-66
2021/03/27 14:16:45;;;;;;;4.70;1.60;;;20.40;92.00;;;;;;5019611;28;20043;-65
2021/03/27 14:19:20;;;;;;;6.80;1.67;;;20.80;91.00;;;;;;5012722;28;20123;-66